sensor_id;sensor_type;location;lat;lon;timestamp;noise_LAeq;noise_LA_min;noise_LA_max;noise_LA01;noise_LA95
66589;Laerm;53447;49.272;11.070;2023-02-04T00:01:10;44.05;37.45;65.96;;
66589;Laerm;53447;49.272;11.070;2023-02-04T00:03:35;54.24;37.31;74.49;;
66589;Laerm;53447;49.272;11.070;2023-02-04T00:06:01;42.09;36.71;60.15;;
66589;Laerm;53447;49.272;11.070;2023-02-04T00:08:26;47.05;37.58;71.98;;
66589;Laerm;53447;49.272;11.070;2023-02-04T00:10:51;42.57;38.08;56.71;;
66589;Laerm;53447;49.272;11.070;2023-02-04T00:13:16;41.94;38.53;45.50;;
66589;Laerm;53447;49.272;11.070;2023-02-04T00:15:42;41.83;37.84;51.06;;
66589;Laerm;53447;49.272;11.070;2023-02-04T00:18:07;41.19;36.38;52.90;;
66589;Laerm;53447;49.272;11.070;2023-02-04T00:20:33;41.32;37.71;43.86;;
66589;Laerm;53447;49.272;11.070;2023-02-04T00:22:58;49.51;38.31;73.98;;
66589;Laerm;53447;49.272;11.070;2023-02-04T00:25:24;41.28;38.42;42.77;;
66589;Laerm;53447;49.272;11.070;2023-02-04T00:27:49;41.09;36.71;42.73;;
66589;Laerm;53447;49.272;11.070;2023-02-04T00:30:14;41.20;38.20;53.39;;
66589;Laerm;53447;49.272;11.070;2023-02-04T00:32:40;41.77;37.02;59.79;;
66589;Laerm;53447;49.272;11.070;2023-02-04T00:35:05;41.99;37.49;53.17;;
66589;Laerm;53447;49.272;11.070;2023-02-04T00:37:31;46.22;36.20;66.97;;
66589;Laerm;53447;49.272;11.070;2023-02-04T00:39:56;45.38;37.84;64.69;;
66589;Laerm;53447;49.272;11.070;2023-02-04T00:42:21;42.52;37.85;56.01;;
66589;Laerm;53447;49.272;11.070;2023-02-04T00:44:47;41.87;39.12;51.78;;
66589;Laerm;53447;49.272;11.070;2023-02-04T00:47:12;41.97;36.52;53.71;;
66589;Laerm;53447;49.272;11.070;2023-02-04T00:49:37;42.01;37.84;49.34;;
66589;Laerm;53447;49.272;11.070;2023-02-04T00:52:03;44.80;38.63;64.49;;
66589;Laerm;53447;49.272;11.070;2023-02-04T00:54:28;43.85;36.71;66.98;;
66589;Laerm;53447;49.272;11.070;2023-02-04T00:56:53;41.77;37.45;60.34;;
66589;Laerm;53447;49.272;11.070;2023-02-04T00:59:19;41.02;36.20;57.86;;
66589;Laerm;53447;49.272;11.070;2023-02-04T01:01:44;42.15;37.58;58.12;;
66589;Laerm;53447;49.272;11.070;2023-02-04T01:04:09;43.36;39.48;57.56;;
66589;Laerm;53447;49.272;11.070;2023-02-04T01:06:35;52.65;35.82;74.23;;
66589;Laerm;53447;49.272;11.070;2023-02-04T01:09:00;50.18;37.02;72.97;;
66589;Laerm;53447;49.272;11.070;2023-02-04T01:11:26;41.62;36.38;54.77;;
66589;Laerm;53447;49.272;11.070;2023-02-04T01:13:51;44.96;37.17;65.92;;
66589;Laerm;53447;49.272;11.070;2023-02-04T01:16:17;43.08;37.17;61.23;;
66589;Laerm;53447;49.272;11.070;2023-02-04T01:18:42;47.19;38.31;67.04;;
66589;Laerm;53447;49.272;11.070;2023-02-04T01:21:07;48.48;37.02;69.14;;
66589;Laerm;53447;49.272;11.070;2023-02-04T01:23:32;42.88;37.84;58.83;;
66589;Laerm;53447;49.272;11.070;2023-02-04T01:25:58;43.22;38.20;57.00;;
66589;Laerm;53447;49.272;11.070;2023-02-04T01:28:23;42.41;37.96;56.45;;
66589;Laerm;53447;49.272;11.070;2023-02-04T01:30:48;50.06;36.55;68.96;;
66589;Laerm;53447;49.272;11.070;2023-02-04T01:33:14;41.26;36.55;49.64;;
66589;Laerm;53447;49.272;11.070;2023-02-04T01:35:39;41.22;37.58;44.78;;
66589;Laerm;53447;49.272;11.070;2023-02-04T01:38:04;42.49;36.55;58.12;;
66589;Laerm;53447;49.272;11.070;2023-02-04T01:40:30;43.01;35.62;67.27;;
66589;Laerm;53447;49.272;11.070;2023-02-04T01:42:55;48.91;37.45;67.05;;
66589;Laerm;53447;49.272;11.070;2023-02-04T01:45:20;42.92;37.71;62.32;;
66589;Laerm;53447;49.272;11.070;2023-02-04T01:47:46;41.46;36.02;49.35;;
66589;Laerm;53447;49.272;11.070;2023-02-04T01:50:12;41.50;36.87;50.56;;
66589;Laerm;53447;49.272;11.070;2023-02-04T01:52:38;43.21;39.03;50.89;;
66589;Laerm;53447;49.272;11.070;2023-02-04T01:55:05;40.79;35.41;47.64;;
66589;Laerm;53447;49.272;11.070;2023-02-04T01:57:35;40.73;36.52;55.92;;
66589;Laerm;53447;49.272;11.070;2023-02-04T02:00:00;40.38;34.95;50.05;;
66589;Laerm;53447;49.272;11.070;2023-02-04T02:02:36;41.36;36.87;44.63;;
66589;Laerm;53447;49.272;11.070;2023-02-04T02:05:02;42.15;38.20;43.70;;
66589;Laerm;53447;49.272;11.070;2023-02-04T02:07:27;42.49;34.70;56.11;;
66589;Laerm;53447;49.272;11.070;2023-02-04T02:09:53;40.60;36.02;51.42;;
66589;Laerm;53447;49.272;11.070;2023-02-04T02:12:18;41.06;35.62;53.84;;
66589;Laerm;53447;49.272;11.070;2023-02-04T02:14:43;40.37;36.71;52.32;;
66589;Laerm;53447;49.272;11.070;2023-02-04T02:17:09;40.49;37.02;45.14;;
66589;Laerm;53447;49.272;11.070;2023-02-04T02:19:35;40.99;36.38;43.89;;
66589;Laerm;53447;49.272;11.070;2023-02-04T02:22:06;40.74;36.02;43.12;;
66589;Laerm;53447;49.272;11.070;2023-02-04T02:24:34;40.65;36.71;42.49;;
66589;Laerm;53447;49.272;11.070;2023-02-04T02:27:01;40.62;36.02;52.17;;
66589;Laerm;53447;49.272;11.070;2023-02-04T02:29:27;40.87;35.82;53.19;;
66589;Laerm;53447;49.272;11.070;2023-02-04T02:31:53;42.09;35.82;61.78;;
66589;Laerm;53447;49.272;11.070;2023-02-04T02:34:21;40.39;35.62;46.86;;
66589;Laerm;53447;49.272;11.070;2023-02-04T02:36:46;42.94;36.38;66.14;;
66589;Laerm;53447;49.272;11.070;2023-02-04T02:39:12;43.15;36.20;61.69;;
66589;Laerm;53447;49.272;11.070;2023-02-04T02:41:37;40.84;36.38;43.80;;
66589;Laerm;53447;49.272;11.070;2023-02-04T02:44:03;42.22;38.63;44.33;;
66589;Laerm;53447;49.272;11.070;2023-02-04T02:46:29;44.35;38.93;63.78;;
66589;Laerm;53447;49.272;11.070;2023-02-04T02:48:54;41.46;37.45;51.83;;
66589;Laerm;53447;49.272;11.070;2023-02-04T02:51:20;41.50;35.62;61.94;;
66589;Laerm;53447;49.272;11.070;2023-02-04T02:53:45;41.25;36.52;60.84;;
66589;Laerm;53447;49.272;11.070;2023-02-04T02:56:11;42.59;35.19;63.53;;
66589;Laerm;53447;49.272;11.070;2023-02-04T02:58:37;41.29;36.71;43.37;;
66589;Laerm;53447;49.272;11.070;2023-02-04T03:01:04;42.22;37.45;52.29;;
66589;Laerm;53447;49.272;11.070;2023-02-04T03:03:34;47.44;35.82;75.38;;
66589;Laerm;53447;49.272;11.070;2023-02-04T03:06:06;45.03;36.55;67.50;;
66589;Laerm;53447;49.272;11.070;2023-02-04T03:08:33;41.08;36.68;53.02;;
66589;Laerm;53447;49.272;11.070;2023-02-04T03:10:59;41.65;35.82;55.16;;
66589;Laerm;53447;49.272;11.070;2023-02-04T03:13:24;41.31;37.58;45.78;;
66589;Laerm;53447;49.272;11.070;2023-02-04T03:15:51;41.89;37.45;43.61;;
66589;Laerm;53447;49.272;11.070;2023-02-04T03:18:16;42.44;37.02;52.77;;
66589;Laerm;53447;49.272;11.070;2023-02-04T03:20:43;40.48;36.02;48.06;;
66589;Laerm;53447;49.272;11.070;2023-02-04T03:23:08;40.77;35.82;43.26;;
66589;Laerm;53447;49.272;11.070;2023-02-04T03:25:34;40.67;36.20;43.01;;
66589;Laerm;53447;49.272;11.070;2023-02-04T03:27:59;40.28;34.95;47.41;;
66589;Laerm;53447;49.272;11.070;2023-02-04T03:30:25;40.29;34.44;47.41;;
66589;Laerm;53447;49.272;11.070;2023-02-04T03:32:50;40.31;35.19;48.16;;
66589;Laerm;53447;49.272;11.070;2023-02-04T03:35:16;41.89;37.58;54.90;;
66589;Laerm;53447;49.272;11.070;2023-02-04T03:37:41;41.10;36.87;46.55;;
66589;Laerm;53447;49.272;11.070;2023-02-04T03:40:06;41.11;38.63;42.66;;
66589;Laerm;53447;49.272;11.070;2023-02-04T03:42:32;42.04;38.73;43.73;;
66589;Laerm;53447;49.272;11.070;2023-02-04T03:44:57;41.21;36.87;42.97;;
66589;Laerm;53447;49.272;11.070;2023-02-04T03:47:23;40.97;36.87;42.69;;
66589;Laerm;53447;49.272;11.070;2023-02-04T03:49:48;41.43;36.87;43.57;;
66589;Laerm;53447;49.272;11.070;2023-02-04T03:52:13;42.24;38.53;44.25;;
66589;Laerm;53447;49.272;11.070;2023-02-04T03:54:39;41.92;37.73;43.83;;
66589;Laerm;53447;49.272;11.070;2023-02-04T03:57:04;40.69;36.20;45.64;;
66589;Laerm;53447;49.272;11.070;2023-02-04T03:59:29;40.50;36.87;42.61;;
66589;Laerm;53447;49.272;11.070;2023-02-04T04:01:54;40.66;36.55;51.26;;
66589;Laerm;53447;49.272;11.070;2023-02-04T04:04:20;40.34;36.20;43.73;;
66589;Laerm;53447;49.272;11.070;2023-02-04T04:06:45;42.38;35.19;60.80;;
66589;Laerm;53447;49.272;11.070;2023-02-04T04:09:10;43.37;36.20;60.95;;
66589;Laerm;53447;49.272;11.070;2023-02-04T04:11:36;41.71;38.08;44.36;;
66589;Laerm;53447;49.272;11.070;2023-02-04T04:14:01;42.14;39.12;51.76;;
66589;Laerm;53447;49.272;11.070;2023-02-04T04:16:26;41.03;35.62;44.39;;
66589;Laerm;53447;49.272;11.070;2023-02-04T04:18:52;42.02;37.02;53.43;;
66589;Laerm;53447;49.272;11.070;2023-02-04T04:21:17;42.21;38.42;44.65;;
66589;Laerm;53447;49.272;11.070;2023-02-04T04:23:42;43.41;38.49;61.08;;
66589;Laerm;53447;49.272;11.070;2023-02-04T04:26:08;41.91;37.58;53.81;;
66589;Laerm;53447;49.272;11.070;2023-02-04T04:28:33;42.40;34.70;60.24;;
66589;Laerm;53447;49.272;11.070;2023-02-04T04:30:58;41.72;36.02;44.16;;
66589;Laerm;53447;49.272;11.070;2023-02-04T04:33:24;41.97;36.71;62.12;;
66589;Laerm;53447;49.272;11.070;2023-02-04T04:35:49;40.88;36.87;42.85;;
66589;Laerm;53447;49.272;11.070;2023-02-04T04:38:14;44.02;34.95;63.50;;
66589;Laerm;53447;49.272;11.070;2023-02-04T04:40:39;41.76;34.95;49.95;;
66589;Laerm;53447;49.272;11.070;2023-02-04T04:43:05;41.29;37.96;50.69;;
66589;Laerm;53447;49.272;11.070;2023-02-04T04:45:30;41.11;38.31;43.64;;
66589;Laerm;53447;49.272;11.070;2023-02-04T04:47:55;40.78;35.41;43.04;;
66589;Laerm;53447;49.272;11.070;2023-02-04T04:50:21;40.58;34.70;47.61;;
66589;Laerm;53447;49.272;11.070;2023-02-04T04:52:46;41.63;34.44;44.75;;
66589;Laerm;53447;49.272;11.070;2023-02-04T04:55:11;43.75;37.17;57.70;;
66589;Laerm;53447;49.272;11.070;2023-02-04T04:57:37;42.88;38.31;49.14;;
66589;Laerm;53447;49.272;11.070;2023-02-04T05:00:03;42.42;37.02;51.81;;
66589;Laerm;53447;49.272;11.070;2023-02-04T05:02:29;46.18;39.64;58.96;;
66589;Laerm;53447;49.272;11.070;2023-02-04T05:04:54;41.49;37.45;48.98;;
66589;Laerm;53447;49.272;11.070;2023-02-04T05:07:19;52.56;37.84;74.43;;
66589;Laerm;53447;49.272;11.070;2023-02-04T05:09:44;42.52;37.45;50.97;;
66589;Laerm;53447;49.272;11.070;2023-02-04T05:12:10;44.15;38.73;57.54;;
66589;Laerm;53447;49.272;11.070;2023-02-04T05:14:35;42.61;38.93;52.33;;
66589;Laerm;53447;49.272;11.070;2023-02-04T05:17:00;42.21;37.45;53.62;;
66589;Laerm;53447;49.272;11.070;2023-02-04T05:19:26;42.18;37.84;60.19;;
66589;Laerm;53447;49.272;11.070;2023-02-04T05:21:51;50.14;36.20;69.26;;
66589;Laerm;53447;49.272;11.070;2023-02-04T05:24:16;40.94;36.38;51.30;;
66589;Laerm;53447;49.272;11.070;2023-02-04T05:26:42;41.21;37.45;48.12;;
66589;Laerm;53447;49.272;11.070;2023-02-04T05:29:10;45.59;38.31;65.68;;
66589;Laerm;53447;49.272;11.070;2023-02-04T05:31:35;42.68;38.08;58.97;;
66589;Laerm;53447;49.272;11.070;2023-02-04T05:34:00;44.18;39.39;62.04;;
66589;Laerm;53447;49.272;11.070;2023-02-04T05:36:26;41.42;36.71;48.88;;
66589;Laerm;53447;49.272;11.070;2023-02-04T05:38:51;41.42;36.55;51.43;;
66589;Laerm;53447;49.272;11.070;2023-02-04T05:41:17;41.03;36.20;48.47;;
66589;Laerm;53447;49.272;11.070;2023-02-04T05:43:42;42.82;36.38;52.33;;
66589;Laerm;53447;49.272;11.070;2023-02-04T05:46:07;42.00;37.58;49.15;;
66589;Laerm;53447;49.272;11.070;2023-02-04T05:48:33;42.54;39.39;47.17;;
66589;Laerm;53447;49.272;11.070;2023-02-04T05:50:58;42.97;39.12;49.63;;
66589;Laerm;53447;49.272;11.070;2023-02-04T05:53:23;42.18;38.20;45.21;;
66589;Laerm;53447;49.272;11.070;2023-02-04T05:55:49;53.86;37.31;73.52;;
66589;Laerm;53447;49.272;11.070;2023-02-04T05:58:14;40.70;37.02;42.36;;
66589;Laerm;53447;49.272;11.070;2023-02-04T06:00:39;51.23;34.44;73.38;;
66589;Laerm;53447;49.272;11.070;2023-02-04T06:03:05;41.34;36.71;62.11;;
66589;Laerm;53447;49.272;11.070;2023-02-04T06:05:30;50.31;37.31;69.97;;
66589;Laerm;53447;49.272;11.070;2023-02-04T06:07:56;44.48;40.03;63.99;;
66589;Laerm;53447;49.272;11.070;2023-02-04T06:10:21;50.72;40.66;78.60;;
66589;Laerm;53447;49.272;11.070;2023-02-04T06:12:46;46.13;37.84;66.22;;
66589;Laerm;53447;49.272;11.070;2023-02-04T06:15:12;41.91;37.58;53.29;;
66589;Laerm;53447;49.272;11.070;2023-02-04T06:17:37;42.18;37.84;60.30;;
66589;Laerm;53447;49.272;11.070;2023-02-04T06:20:03;52.72;36.71;69.91;;
66589;Laerm;53447;49.272;11.070;2023-02-04T06:22:29;47.26;37.45;69.10;;
66589;Laerm;53447;49.272;11.070;2023-02-04T06:24:54;49.52;37.02;63.87;;
66589;Laerm;53447;49.272;11.070;2023-02-04T06:27:20;42.48;36.38;55.13;;
66589;Laerm;53447;49.272;11.070;2023-02-04T06:29:53;53.02;40.32;70.92;;
66589;Laerm;53447;49.272;11.070;2023-02-04T06:32:19;46.94;39.30;63.82;;
66589;Laerm;53447;49.272;11.070;2023-02-04T06:34:44;42.17;39.21;57.40;;
66589;Laerm;53447;49.272;11.070;2023-02-04T06:37:10;43.61;39.30;61.32;;
66589;Laerm;53447;49.272;11.070;2023-02-04T06:39:36;45.26;38.73;68.17;;
66589;Laerm;53447;49.272;11.070;2023-02-04T06:42:01;49.46;39.03;67.69;;
66589;Laerm;53447;49.272;11.070;2023-02-04T06:44:27;50.96;39.56;69.20;;
66589;Laerm;53447;49.272;11.070;2023-02-04T06:46:52;53.57;40.72;68.19;;
66589;Laerm;53447;49.272;11.070;2023-02-04T06:49:17;54.08;40.46;67.49;;
66589;Laerm;53447;49.272;11.070;2023-02-04T06:51:43;56.61;41.21;70.69;;
66589;Laerm;53447;49.272;11.070;2023-02-04T06:54:08;54.71;39.21;66.88;;
66589;Laerm;53447;49.272;11.070;2023-02-04T06:56:33;54.13;39.56;69.05;;
66589;Laerm;53447;49.272;11.070;2023-02-04T06:58:59;51.58;39.03;65.33;;
66589;Laerm;53447;49.272;11.070;2023-02-04T07:01:24;49.86;39.03;67.98;;
66589;Laerm;53447;49.272;11.070;2023-02-04T07:03:49;52.90;39.12;71.06;;
66589;Laerm;53447;49.272;11.070;2023-02-04T07:06:14;50.51;38.20;64.67;;
66589;Laerm;53447;49.272;11.070;2023-02-04T07:08:40;52.21;40.85;66.85;;
66589;Laerm;53447;49.272;11.070;2023-02-04T07:11:05;54.49;36.02;66.40;;
66589;Laerm;53447;49.272;11.070;2023-02-04T07:13:30;55.09;40.11;70.15;;
66589;Laerm;53447;49.272;11.070;2023-02-04T07:15:56;55.15;39.96;70.05;;
66589;Laerm;53447;49.272;11.070;2023-02-04T07:18:21;53.47;38.83;69.28;;
66589;Laerm;53447;49.272;11.070;2023-02-04T07:20:47;50.89;39.03;67.50;;
66589;Laerm;53447;49.272;11.070;2023-02-04T07:23:12;47.51;37.84;68.22;;
66589;Laerm;53447;49.272;11.070;2023-02-04T07:25:37;42.47;39.21;55.30;;
66589;Laerm;53447;49.272;11.070;2023-02-04T07:28:03;52.00;38.20;71.34;;
66589;Laerm;53447;49.272;11.070;2023-02-04T07:30:29;50.90;40.79;69.54;;
66589;Laerm;53447;49.272;11.070;2023-02-04T07:32:55;50.00;40.66;65.57;;
66589;Laerm;53447;49.272;11.070;2023-02-04T07:37:56;44.74;39.21;62.97;;
66589;Laerm;53447;49.272;11.070;2023-02-04T07:40:21;46.67;38.73;68.46;;
66589;Laerm;53447;49.272;11.070;2023-02-04T07:42:47;42.12;39.30;52.53;;
66589;Laerm;53447;49.272;11.070;2023-02-04T07:45:12;44.74;38.53;60.67;;
66589;Laerm;53447;49.272;11.070;2023-02-04T07:47:37;43.01;38.73;60.24;;
66589;Laerm;53447;49.272;11.070;2023-02-04T07:50:03;44.33;39.80;59.87;;
66589;Laerm;53447;49.272;11.070;2023-02-04T07:52:28;44.06;40.53;63.09;;
66589;Laerm;53447;49.272;11.070;2023-02-04T07:54:53;44.35;38.20;58.52;;
66589;Laerm;53447;49.272;11.070;2023-02-04T07:57:19;46.62;39.21;64.98;;
66589;Laerm;53447;49.272;11.070;2023-02-04T07:59:44;41.66;37.71;49.09;;
66589;Laerm;53447;49.272;11.070;2023-02-04T08:02:09;42.07;39.39;54.08;;
66589;Laerm;53447;49.272;11.070;2023-02-04T08:04:35;51.07;39.72;65.75;;
66589;Laerm;53447;49.272;11.070;2023-02-04T08:07:02;47.78;40.46;60.88;;
66589;Laerm;53447;49.272;11.070;2023-02-04T08:09:27;48.58;38.93;72.72;;
66589;Laerm;53447;49.272;11.070;2023-02-04T08:11:52;46.05;40.56;60.94;;
66589;Laerm;53447;49.272;11.070;2023-02-04T08:14:18;46.14;39.72;70.73;;
66589;Laerm;53447;49.272;11.070;2023-02-04T08:16:43;46.67;39.30;64.85;;
66589;Laerm;53447;49.272;11.070;2023-02-04T08:19:08;56.35;39.80;73.36;;
66589;Laerm;53447;49.272;11.070;2023-02-04T08:21:33;52.27;39.48;69.02;;
66589;Laerm;53447;49.272;11.070;2023-02-04T08:24:00;49.43;39.39;66.82;;
66589;Laerm;53447;49.272;11.070;2023-02-04T08:26:26;54.19;39.64;71.64;;
66589;Laerm;53447;49.272;11.070;2023-02-04T08:28:51;47.13;40.63;67.60;;
66589;Laerm;53447;49.272;11.070;2023-02-04T08:31:16;45.11;40.32;59.04;;
66589;Laerm;53447;49.272;11.070;2023-02-04T08:33:42;53.80;40.11;72.71;;
66589;Laerm;53447;49.272;11.070;2023-02-04T08:36:07;43.27;38.93;60.46;;
66589;Laerm;53447;49.272;11.070;2023-02-04T08:38:32;53.47;38.83;72.80;;
66589;Laerm;53447;49.272;11.070;2023-02-04T08:40:58;53.25;40.53;72.04;;
66589;Laerm;53447;49.272;11.070;2023-02-04T08:43:24;50.24;39.03;62.73;;
66589;Laerm;53447;49.272;11.070;2023-02-04T08:45:49;48.65;39.12;62.45;;
66589;Laerm;53447;49.272;11.070;2023-02-04T08:48:15;46.32;39.53;62.38;;
66589;Laerm;53447;49.272;11.070;2023-02-04T08:50:40;46.05;39.30;61.19;;
66589;Laerm;53447;49.272;11.070;2023-02-04T08:53:05;51.91;39.80;69.39;;
66589;Laerm;53447;49.272;11.070;2023-02-04T08:55:30;56.01;40.91;70.30;;
66589;Laerm;53447;49.272;11.070;2023-02-04T08:57:56;54.31;40.32;69.59;;
66589;Laerm;53447;49.272;11.070;2023-02-04T09:00:23;46.45;38.63;62.08;;
66589;Laerm;53447;49.272;11.070;2023-02-04T09:02:48;48.24;38.08;64.75;;
66589;Laerm;53447;49.272;11.070;2023-02-04T09:05:13;53.40;40.11;72.92;;
66589;Laerm;53447;49.272;11.070;2023-02-04T09:07:39;51.89;39.64;69.36;;
66589;Laerm;53447;49.272;11.070;2023-02-04T09:10:04;57.83;40.79;79.41;;
66589;Laerm;53447;49.272;11.070;2023-02-04T09:12:30;54.16;40.18;78.26;;
66589;Laerm;53447;49.272;11.070;2023-02-04T09:14:55;43.12;40.97;58.83;;
66589;Laerm;53447;49.272;11.070;2023-02-04T09:17:20;45.05;39.96;65.11;;
66589;Laerm;53447;49.272;11.070;2023-02-04T09:19:47;43.34;39.48;58.88;;
66589;Laerm;53447;49.272;11.070;2023-02-04T09:22:12;54.47;38.53;75.57;;
66589;Laerm;53447;49.272;11.070;2023-02-04T09:24:37;43.51;36.55;56.83;;
66589;Laerm;53447;49.272;11.070;2023-02-04T09:27:03;55.23;39.03;73.08;;
66589;Laerm;53447;49.272;11.070;2023-02-04T09:29:28;55.23;39.03;73.44;;
66589;Laerm;53447;49.272;11.070;2023-02-04T09:31:53;55.48;39.96;74.67;;
66589;Laerm;53447;49.272;11.070;2023-02-04T09:34:19;53.17;38.83;72.28;;
66589;Laerm;53447;49.272;11.070;2023-02-04T09:36:44;43.94;39.04;61.67;;
66589;Laerm;53447;49.272;11.070;2023-02-04T09:39:09;45.16;38.63;59.75;;
66589;Laerm;53447;49.272;11.070;2023-02-04T09:41:38;48.46;38.42;67.72;;
66589;Laerm;53447;49.272;11.070;2023-02-04T09:44:05;46.38;37.71;65.41;;
66589;Laerm;53447;49.272;11.070;2023-02-04T09:46:32;47.22;39.46;66.52;;
66589;Laerm;53447;49.272;11.070;2023-02-04T09:48:58;50.48;40.39;66.93;;
66589;Laerm;53447;49.272;11.070;2023-02-04T09:51:27;51.18;40.85;67.44;;
66589;Laerm;53447;49.272;11.070;2023-02-04T09:53:53;54.77;41.15;67.56;;
66589;Laerm;53447;49.272;11.070;2023-02-04T09:56:22;48.62;39.48;69.88;;
66589;Laerm;53447;49.272;11.070;2023-02-04T09:58:48;47.50;39.64;61.90;;
66589;Laerm;53447;49.272;11.070;2023-02-04T10:01:14;44.21;38.93;61.96;;
66589;Laerm;53447;49.272;11.070;2023-02-04T10:03:41;45.91;39.30;57.18;;
66589;Laerm;53447;49.272;11.070;2023-02-04T10:06:13;44.74;37.84;59.67;;
66589;Laerm;53447;49.272;11.070;2023-02-04T10:08:38;44.46;38.31;58.97;;
66589;Laerm;53447;49.272;11.070;2023-02-04T10:11:04;53.71;40.53;69.06;;
66589;Laerm;53447;49.272;11.070;2023-02-04T10:13:30;48.15;40.39;63.82;;
66589;Laerm;53447;49.272;11.070;2023-02-04T10:15:56;54.51;38.31;74.11;;
66589;Laerm;53447;49.272;11.070;2023-02-04T10:18:27;49.58;36.82;64.58;;
66589;Laerm;53447;49.272;11.070;2023-02-04T10:20:55;44.56;37.61;60.79;;
66589;Laerm;53447;49.272;11.070;2023-02-04T10:23:21;44.05;40.32;54.30;;
66589;Laerm;53447;49.272;11.070;2023-02-04T10:25:47;55.94;39.80;73.17;;
66589;Laerm;53447;49.272;11.070;2023-02-04T10:28:12;52.00;39.48;71.94;;
66589;Laerm;53447;49.272;11.070;2023-02-04T10:30:38;48.83;40.72;64.20;;
66589;Laerm;53447;49.272;11.070;2023-02-04T10:33:21;53.88;40.18;72.17;;
66589;Laerm;53447;49.272;11.070;2023-02-04T10:35:51;43.04;36.02;57.51;;
66589;Laerm;53447;49.272;11.070;2023-02-04T10:38:16;45.44;33.86;60.95;;
66589;Laerm;53447;49.272;11.070;2023-02-04T10:40:42;45.72;38.73;63.02;;
66589;Laerm;53447;49.272;11.070;2023-02-04T10:43:08;43.16;37.84;61.22;;
66589;Laerm;53447;49.272;11.070;2023-02-04T10:45:34;44.65;39.56;58.73;;
66589;Laerm;53447;49.272;11.070;2023-02-04T10:48:00;43.33;39.39;57.07;;
66589;Laerm;53447;49.272;11.070;2023-02-04T10:50:26;45.88;39.64;64.37;;
66589;Laerm;53447;49.272;11.070;2023-02-04T10:52:53;46.02;39.88;71.94;;
66589;Laerm;53447;49.272;11.070;2023-02-04T10:55:39;49.12;37.84;68.36;;
66589;Laerm;53447;49.272;11.070;2023-02-04T10:58:04;42.10;39.13;49.93;;
66589;Laerm;53447;49.272;11.070;2023-02-04T11:00:30;46.53;40.11;64.22;;
66589;Laerm;53447;49.272;11.070;2023-02-04T11:03:06;52.35;40.66;79.11;;
66589;Laerm;53447;49.272;11.070;2023-02-04T11:05:34;51.59;40.53;69.98;;
66589;Laerm;53447;49.272;11.070;2023-02-04T11:08:00;45.47;40.59;64.57;;
66589;Laerm;53447;49.272;11.070;2023-02-04T11:10:30;53.45;41.38;72.55;;
66589;Laerm;53447;49.272;11.070;2023-02-04T11:15:37;53.42;39.21;74.67;;
66589;Laerm;53447;49.272;11.070;2023-02-04T11:18:07;44.50;36.87;64.51;;
66589;Laerm;53447;49.272;11.070;2023-02-04T11:20:33;52.75;40.59;71.82;;
66589;Laerm;53447;49.272;11.070;2023-02-04T11:23:16;47.08;37.31;61.29;;
66589;Laerm;53447;49.272;11.070;2023-02-04T11:25:42;44.38;38.31;60.75;;
66589;Laerm;53447;49.272;11.070;2023-02-04T11:28:14;42.60;38.20;56.39;;
66589;Laerm;53447;49.272;11.070;2023-02-04T11:30:39;43.93;40.46;60.98;;
66589;Laerm;53447;49.272;11.070;2023-02-04T11:33:05;51.64;40.97;69.94;;
66589;Laerm;53447;49.272;11.070;2023-02-04T11:35:31;49.39;39.03;66.62;;
66589;Laerm;53447;49.272;11.070;2023-02-04T11:37:57;42.63;38.08;55.95;;
66589;Laerm;53447;49.272;11.070;2023-02-04T11:43:01;45.93;38.63;63.58;;
66589;Laerm;53447;49.272;11.070;2023-02-04T11:45:30;50.56;38.20;67.52;;
66589;Laerm;53447;49.272;11.070;2023-02-04T11:47:57;48.26;39.56;65.77;;
66589;Laerm;53447;49.272;11.070;2023-02-04T11:50:27;55.93;42.53;71.14;;
66589;Laerm;53447;49.272;11.070;2023-02-04T11:52:54;50.02;41.59;69.86;;
66589;Laerm;53447;49.272;11.070;2023-02-04T11:55:20;46.04;40.97;55.69;;
66589;Laerm;53447;49.272;11.070;2023-02-04T11:57:45;43.91;37.58;58.32;;
66589;Laerm;53447;49.272;11.070;2023-02-04T12:00:17;43.96;38.83;56.65;;
66589;Laerm;53447;49.272;11.070;2023-02-04T12:02:43;50.52;39.30;65.03;;
66589;Laerm;53447;49.272;11.070;2023-02-04T12:05:11;49.09;38.93;64.45;;
66589;Laerm;53447;49.272;11.070;2023-02-04T12:07:37;51.09;39.21;70.26;;
66589;Laerm;53447;49.272;11.070;2023-02-04T12:12:44;48.86;40.32;66.86;;
66589;Laerm;53447;49.272;11.070;2023-02-04T12:15:13;50.70;38.73;70.20;;
66589;Laerm;53447;49.272;11.070;2023-02-04T12:17:39;42.96;37.84;62.03;;
66589;Laerm;53447;49.272;11.070;2023-02-04T12:20:04;52.83;39.12;73.16;;
66589;Laerm;53447;49.272;11.070;2023-02-04T12:22:29;45.15;38.93;60.30;;
66589;Laerm;53447;49.272;11.070;2023-02-04T12:24:55;43.33;38.42;63.60;;
66589;Laerm;53447;49.272;11.070;2023-02-04T12:27:20;47.87;37.24;63.55;;
66589;Laerm;53447;49.272;11.070;2023-02-04T12:29:46;46.97;40.59;64.35;;
66589;Laerm;53447;49.272;11.070;2023-02-04T12:32:11;46.05;39.88;62.74;;
66589;Laerm;53447;49.272;11.070;2023-02-04T12:34:37;43.61;40.18;56.03;;
66589;Laerm;53447;49.272;11.070;2023-02-04T12:37:02;52.22;39.88;72.33;;
66589;Laerm;53447;49.272;11.070;2023-02-04T12:39:27;49.63;40.18;68.04;;
66589;Laerm;53447;49.272;11.070;2023-02-04T12:41:53;46.35;39.88;64.56;;
66589;Laerm;53447;49.272;11.070;2023-02-04T12:44:18;44.63;39.96;58.23;;
66589;Laerm;53447;49.272;11.070;2023-02-04T12:46:43;46.08;37.71;59.08;;
66589;Laerm;53447;49.272;11.070;2023-02-04T12:49:09;43.95;38.73;59.80;;
66589;Laerm;53447;49.272;11.070;2023-02-04T12:51:34;44.56;39.03;66.07;;
66589;Laerm;53447;49.272;11.070;2023-02-04T12:53:59;44.01;39.21;65.55;;
66589;Laerm;53447;49.272;11.070;2023-02-04T12:56:24;42.36;37.17;55.56;;
66589;Laerm;53447;49.272;11.070;2023-02-04T12:58:50;43.12;38.20;55.07;;
66589;Laerm;53447;49.272;11.070;2023-02-04T13:01:15;40.87;36.38;49.93;;
66589;Laerm;53447;49.272;11.070;2023-02-04T13:03:40;43.54;39.03;58.64;;
66589;Laerm;53447;49.272;11.070;2023-02-04T13:06:06;41.32;37.96;52.85;;
66589;Laerm;53447;49.272;11.070;2023-02-04T13:08:31;42.55;37.58;53.88;;
66589;Laerm;53447;49.272;11.070;2023-02-04T13:10:56;42.45;40.25;52.07;;
66589;Laerm;53447;49.272;11.070;2023-02-04T13:13:22;44.00;39.48;59.03;;
66589;Laerm;53447;49.272;11.070;2023-02-04T13:15:47;42.67;38.20;61.21;;
66589;Laerm;53447;49.272;11.070;2023-02-04T13:18:13;50.58;38.08;69.03;;
66589;Laerm;53447;49.272;11.070;2023-02-04T13:20:38;50.97;38.63;68.82;;
66589;Laerm;53447;49.272;11.070;2023-02-04T13:23:04;51.94;39.48;71.21;;
66589;Laerm;53447;49.272;11.070;2023-02-04T13:25:29;41.90;37.37;60.17;;
66589;Laerm;53447;49.272;11.070;2023-02-04T13:27:54;51.59;37.84;70.56;;
66589;Laerm;53447;49.272;11.070;2023-02-04T13:30:20;42.79;39.76;60.92;;
66589;Laerm;53447;49.272;11.070;2023-02-04T13:32:45;50.19;40.11;69.32;;
66589;Laerm;53447;49.272;11.070;2023-02-04T13:35:11;51.57;37.96;71.18;;